createdAt,value
2019-04-30T00:01:07.530Z,9.48
2019-04-30T00:03:39.437Z,9.54
2019-04-30T00:06:07.417Z,9.47
2019-04-30T00:08:35.479Z,9.44
2019-04-30T00:11:02.324Z,9.52
2019-04-30T00:13:28.945Z,9.47
2019-04-30T00:16:00.126Z,9.44
2019-04-30T00:18:25.461Z,9.55
2019-04-30T00:20:52.015Z,9.60
2019-04-30T00:23:22.627Z,9.57
2019-04-30T00:25:47.199Z,9.37
2019-04-30T00:28:15.504Z,9.30
2019-04-30T00:30:43.993Z,9.34
2019-04-30T00:33:15.244Z,9.29
2019-04-30T00:35:38.921Z,9.34
2019-04-30T00:38:05.904Z,9.32
2019-04-30T00:40:32.740Z,9.11
2019-04-30T00:43:00.262Z,9.26
2019-04-30T00:45:27.973Z,9.31
2019-04-30T00:47:55.949Z,9.31
2019-04-30T00:50:24.800Z,9.29
2019-04-30T00:52:51.073Z,9.27
2019-04-30T00:55:17.338Z,9.29
2019-04-30T00:57:46.081Z,9.36
2019-04-30T01:00:12.581Z,9.41
2019-04-30T01:02:45.535Z,9.30
2019-04-30T01:05:17.591Z,9.31
2019-04-30T01:07:50.754Z,9.23
2019-04-30T01:10:15.054Z,9.26
2019-04-30T01:12:47.019Z,9.32
2019-04-30T01:15:11.236Z,9.22
2019-04-30T01:17:38.249Z,9.22
2019-04-30T01:20:06.648Z,9.07
2019-04-30T01:22:33.043Z,8.98
2019-04-30T01:25:01.332Z,9.08
2019-04-30T01:27:28.383Z,9.04
2019-04-30T01:29:54.567Z,8.94
2019-04-30T01:32:21.227Z,8.80
2019-04-30T01:34:49.828Z,8.74
2019-04-30T01:37:15.279Z,8.79
2019-04-30T01:39:41.671Z,8.76
2019-04-30T01:42:11.253Z,8.70
2019-04-30T01:44:35.636Z,8.71
2019-04-30T01:47:01.805Z,8.72
2019-04-30T01:49:28.994Z,8.72
2019-04-30T01:51:57.438Z,8.68
2019-04-30T01:54:24.494Z,8.58
2019-04-30T01:57:04.602Z,8.61
2019-04-30T01:59:32.624Z,8.60
2019-04-30T02:01:59.026Z,8.59
2019-04-30T02:04:25.068Z,8.60
2019-04-30T02:06:51.227Z,8.51
2019-04-30T02:09:18.884Z,8.59
2019-04-30T02:11:45.494Z,8.59
2019-04-30T02:14:11.669Z,8.59
2019-04-30T02:16:39.456Z,8.60
2019-04-30T02:19:05.634Z,8.56
2019-04-30T02:21:33.357Z,8.60
2019-04-30T02:23:59.616Z,8.55
2019-04-30T02:26:25.956Z,8.70
2019-04-30T02:28:52.062Z,8.64
2019-04-30T02:31:19.441Z,8.55
2019-04-30T02:33:50.290Z,8.66
2019-04-30T02:36:34.078Z,8.56
2019-04-30T02:39:02.650Z,8.47
2019-04-30T02:41:29.310Z,8.56
2019-04-30T02:43:59.680Z,8.57
2019-04-30T02:46:26.165Z,8.53
2019-04-30T02:48:53.183Z,8.53
2019-04-30T02:51:22.900Z,8.52
2019-04-30T02:54:09.555Z,8.48
2019-04-30T02:56:35.222Z,8.44
2019-04-30T02:59:03.802Z,8.37
2019-04-30T03:01:30.527Z,8.56
2019-04-30T03:03:59.557Z,8.47
2019-04-30T03:06:24.736Z,8.47
2019-04-30T03:08:51.439Z,8.45
2019-04-30T03:11:20.279Z,8.36
2019-04-30T03:13:45.527Z,8.31
2019-04-30T03:16:13.537Z,8.32
2019-04-30T03:18:50.085Z,8.37
2019-04-30T03:21:34.349Z,8.42
2019-04-30T03:24:00.727Z,8.38
2019-04-30T03:26:29.615Z,8.34
2019-04-30T03:28:54.717Z,8.43
2019-04-30T03:31:22.413Z,8.35
2019-04-30T03:33:52.475Z,8.27
2019-04-30T03:36:21.281Z,8.20
2019-04-30T03:38:44.627Z,8.23
2019-04-30T03:41:10.625Z,8.26
2019-04-30T03:43:36.643Z,8.23
2019-04-30T03:46:03.054Z,8.22
2019-04-30T03:48:29.478Z,8.27
2019-04-30T03:50:57.099Z,8.24
2019-04-30T03:53:23.787Z,8.21
2019-04-30T03:55:50.559Z,8.22
2019-04-30T03:58:20.820Z,8.23
2019-04-30T04:00:46.795Z,8.19
2019-04-30T04:03:12.846Z,8.24
2019-04-30T04:05:49.819Z,8.22
2019-04-30T04:08:23.441Z,8.30
2019-04-30T04:11:00.298Z,8.26
2019-04-30T04:13:25.112Z,8.30
2019-04-30T04:15:51.143Z,8.28
2019-04-30T04:18:20.021Z,8.38
2019-04-30T04:20:45.160Z,8.37
2019-04-30T04:23:11.243Z,8.43
2019-04-30T04:25:39.603Z,8.48
2019-04-30T04:28:05.289Z,8.50
2019-04-30T04:30:31.319Z,8.57
2019-04-30T04:33:00.165Z,8.59
2019-04-30T04:35:29.642Z,8.68
2019-04-30T04:37:54.740Z,8.71
2019-04-30T04:40:21.330Z,8.72
2019-04-30T04:42:49.301Z,8.75
2019-04-30T04:45:15.578Z,8.79
2019-04-30T04:47:41.568Z,8.94
2019-04-30T04:50:10.284Z,8.91
2019-04-30T04:52:36.296Z,9.08
2019-04-30T04:55:04.875Z,9.11
2019-04-30T04:57:30.910Z,9.23
2019-04-30T05:00:00.451Z,9.29
2019-04-30T05:02:32.134Z,9.35
2019-04-30T05:04:55.472Z,9.53
2019-04-30T05:07:21.661Z,9.61
2019-04-30T05:09:48.944Z,9.72
2019-04-30T05:12:15.056Z,9.68
2019-04-30T05:14:41.053Z,9.76
2019-04-30T05:17:07.060Z,9.84
2019-04-30T05:19:33.086Z,9.94
2019-04-30T05:21:59.662Z,9.98
2019-04-30T05:24:25.840Z,9.98
2019-04-30T05:26:51.840Z,10.12
2019-04-30T05:29:19.055Z,10.15
2019-04-30T05:31:45.208Z,10.15
2019-04-30T05:34:11.385Z,10.20
2019-04-30T05:36:39.178Z,10.23
2019-04-30T05:39:05.393Z,10.33
2019-04-30T05:41:49.072Z,10.31
2019-04-30T05:44:14.649Z,10.42
2019-04-30T05:46:41.482Z,10.51
2019-04-30T05:49:09.012Z,10.70
2019-04-30T05:51:35.215Z,10.70
2019-04-30T05:54:01.230Z,10.82
2019-04-30T05:56:30.148Z,10.89
2019-04-30T05:58:55.383Z,10.99
2019-04-30T06:01:24.178Z,11.03
2019-04-30T06:03:49.411Z,11.03
2019-04-30T06:06:15.426Z,11.09
2019-04-30T06:08:43.409Z,11.03
2019-04-30T06:11:14.711Z,11.15
2019-04-30T06:14:00.460Z,11.29
2019-04-30T06:16:29.816Z,11.26
2019-04-30T06:18:56.068Z,11.31
2019-04-30T06:21:22.185Z,11.53
2019-04-30T06:23:49.257Z,11.51
2019-04-30T06:26:15.942Z,11.71
2019-04-30T06:28:42.077Z,12.00
2019-04-30T06:31:09.154Z,12.29
2019-04-30T06:33:35.420Z,12.53
2019-04-30T06:36:03.429Z,12.77
2019-04-30T06:38:29.460Z,13.10
2019-04-30T06:40:55.510Z,13.25
2019-04-30T06:43:22.590Z,13.33
2019-04-30T06:45:51.260Z,13.95
2019-04-30T06:48:19.908Z,14.05
2019-04-30T06:50:46.290Z,14.23
2019-04-30T06:53:12.356Z,14.28
2019-04-30T06:55:39.209Z,14.08
2019-04-30T06:58:14.829Z,14.43
2019-04-30T07:00:35.650Z,14.30
2019-04-30T07:03:01.795Z,14.29
2019-04-30T07:05:28.637Z,14.47
2019-04-30T07:08:13.092Z,14.60
2019-04-30T07:10:41.419Z,14.86
2019-04-30T07:13:08.961Z,14.97
2019-04-30T07:15:34.968Z,14.95
2019-04-30T07:18:00.995Z,15.12
2019-04-30T07:20:29.112Z,15.26
2019-04-30T07:23:02.182Z,15.51
2019-04-30T07:25:23.084Z,15.98
2019-04-30T07:27:50.546Z,16.34
2019-04-30T07:30:18.874Z,16.45
2019-04-30T07:32:44.924Z,16.30
2019-04-30T07:35:11.176Z,16.47
2019-04-30T07:37:39.179Z,16.74
2019-04-30T07:40:06.383Z,16.46
2019-04-30T07:42:36.961Z,16.69
2019-04-30T07:45:00.787Z,16.90
2019-04-30T07:47:29.566Z,16.88
2019-04-30T07:49:55.969Z,17.55
2019-04-30T07:52:22.951Z,17.44
2019-04-30T07:54:51.785Z,17.28
2019-04-30T07:57:19.252Z,17.33
2019-04-30T07:59:45.453Z,17.07
2019-04-30T08:02:14.638Z,17.15
2019-04-30T08:04:44.098Z,17.24
2019-04-30T08:07:10.345Z,17.39
2019-04-30T08:09:39.695Z,17.80
2019-04-30T08:12:04.749Z,18.02
2019-04-30T08:14:30.742Z,18.09
2019-04-30T08:16:58.566Z,18.22
2019-04-30T08:19:24.762Z,18.32
2019-04-30T08:21:50.775Z,18.44
2019-04-30T08:24:16.796Z,18.28
2019-04-30T08:26:42.824Z,18.87
2019-04-30T08:29:09.604Z,19.26
2019-04-30T08:31:35.750Z,18.89
2019-04-30T08:34:01.767Z,18.94
2019-04-30T08:36:29.639Z,18.97
2019-04-30T08:38:55.670Z,18.93
2019-04-30T08:41:21.719Z,19.26
2019-04-30T08:43:49.469Z,19.70
2019-04-30T08:46:15.835Z,19.37
2019-04-30T08:48:50.449Z,19.16
2019-04-30T08:51:13.308Z,19.91
2019-04-30T08:53:38.635Z,20.12
2019-04-30T08:56:05.860Z,19.97
2019-04-30T08:58:31.846Z,20.53
2019-04-30T09:00:58.892Z,20.32
2019-04-30T09:03:24.897Z,20.43
2019-04-30T09:05:52.789Z,20.25
2019-04-30T09:08:19.454Z,20.33
2019-04-30T09:10:45.883Z,21.13
2019-04-30T09:13:11.885Z,20.66
2019-04-30T09:15:37.875Z,20.75
2019-04-30T09:18:08.234Z,20.29
2019-04-30T09:20:32.180Z,21.14
2019-04-30T09:22:59.562Z,21.77
2019-04-30T09:25:25.707Z,22.21
2019-04-30T09:27:51.688Z,21.97
2019-04-30T09:30:18.860Z,21.77
2019-04-30T09:32:45.092Z,22.48
2019-04-30T09:35:11.275Z,21.77
2019-04-30T09:37:39.410Z,21.14
2019-04-30T09:40:15.154Z,21.19
2019-04-30T09:42:34.144Z,21.83
2019-04-30T09:45:00.125Z,21.36
2019-04-30T09:47:26.289Z,22.34
2019-04-30T09:49:52.294Z,21.90
2019-04-30T09:52:19.343Z,21.77
2019-04-30T09:54:46.035Z,22.07
2019-04-30T09:57:12.210Z,22.35
2019-04-30T09:59:38.810Z,21.76
2019-04-30T10:02:05.025Z,22.01
2019-04-30T10:04:31.396Z,22.41
2019-04-30T10:06:59.549Z,22.29
2019-04-30T10:09:25.735Z,22.44
2019-04-30T10:11:56.391Z,22.42
2019-04-30T10:14:22.627Z,21.96
2019-04-30T10:16:56.368Z,23.18
2019-04-30T10:19:22.419Z,23.30
2019-04-30T10:21:48.959Z,23.00
2019-04-30T10:24:15.835Z,22.78
2019-04-30T10:26:43.038Z,23.43
2019-04-30T10:29:09.189Z,23.11
2019-04-30T10:31:35.489Z,22.86
2019-04-30T10:34:01.502Z,23.00
2019-04-30T10:36:29.444Z,23.86
2019-04-30T10:38:55.664Z,24.00
2019-04-30T10:41:21.755Z,23.39
2019-04-30T10:43:49.152Z,23.32
2019-04-30T10:46:15.496Z,23.46
2019-04-30T10:48:43.406Z,23.17
2019-04-30T10:51:09.377Z,23.02
2019-04-30T10:53:35.413Z,23.09
2019-04-30T10:56:01.489Z,22.95
2019-04-30T10:58:27.492Z,23.61
2019-04-30T11:00:53.700Z,24.11
2019-04-30T11:03:22.819Z,23.41
2019-04-30T11:05:48.834Z,23.24
2019-04-30T11:08:14.967Z,23.85
2019-04-30T11:10:41.038Z,23.59
2019-04-30T11:13:07.007Z,23.56
2019-04-30T11:15:33.078Z,22.38
2019-04-30T11:17:59.684Z,22.47
2019-04-30T11:20:26.079Z,22.51
2019-04-30T11:22:54.501Z,22.55
2019-04-30T11:25:20.536Z,22.81
2019-04-30T11:27:47.216Z,22.34
2019-04-30T11:30:21.272Z,23.27
2019-04-30T11:32:42.520Z,22.73
2019-04-30T11:35:09.076Z,22.49
2019-04-30T11:37:35.063Z,22.35
2019-04-30T11:40:01.270Z,22.17
2019-04-30T11:42:28.536Z,22.33
2019-04-30T11:44:54.555Z,22.50
2019-04-30T11:47:24.410Z,22.43
2019-04-30T11:49:50.417Z,22.40
2019-04-30T11:52:16.513Z,22.61
2019-04-30T11:54:49.117Z,22.70
2019-04-30T11:57:10.750Z,22.76
2019-04-30T11:59:36.749Z,22.78
2019-04-30T12:02:05.073Z,23.03
2019-04-30T12:04:31.085Z,22.81
2019-04-30T12:06:59.041Z,22.40
2019-04-30T12:09:29.696Z,22.79
2019-04-30T12:11:55.700Z,22.68
2019-04-30T12:14:21.722Z,23.11
2019-04-30T12:16:47.719Z,22.22
2019-04-30T12:19:13.733Z,22.75
2019-04-30T12:21:39.749Z,22.65
2019-04-30T12:24:05.772Z,22.41
2019-04-30T12:26:31.764Z,22.67
2019-04-30T12:28:57.764Z,22.96
2019-04-30T12:31:23.892Z,22.52
2019-04-30T12:33:49.918Z,22.67
2019-04-30T12:36:15.963Z,22.73
2019-04-30T12:38:41.961Z,22.65
2019-04-30T12:41:09.948Z,22.57
2019-04-30T12:43:35.966Z,22.92
2019-04-30T12:46:05.485Z,23.21
2019-04-30T12:48:35.485Z,23.31
2019-04-30T12:51:12.279Z,22.77
2019-04-30T12:53:56.691Z,23.12
2019-04-30T12:56:27.026Z,22.92
2019-04-30T12:58:53.007Z,22.54
2019-04-30T13:01:18.986Z,22.26
2019-04-30T13:03:55.911Z,22.66
2019-04-30T13:06:13.582Z,22.46
2019-04-30T13:08:40.422Z,22.54
2019-04-30T13:11:07.517Z,22.88
2019-04-30T13:13:35.524Z,23.21
2019-04-30T13:16:01.723Z,23.05
2019-04-30T13:18:29.488Z,23.37
2019-04-30T13:20:55.732Z,22.78
2019-04-30T13:23:21.772Z,22.49
2019-04-30T13:25:51.391Z,22.37
2019-04-30T13:28:20.378Z,22.40
2019-04-30T13:30:46.480Z,22.08
2019-04-30T13:33:14.404Z,21.99
2019-04-30T13:35:40.401Z,21.83
2019-04-30T13:38:11.056Z,21.91
2019-04-30T13:40:41.516Z,21.78
2019-04-30T13:43:09.398Z,21.50
2019-04-30T13:45:35.434Z,21.72
2019-04-30T13:48:01.664Z,21.80
2019-04-30T13:50:29.197Z,21.87
2019-04-30T13:52:55.537Z,21.67
2019-04-30T13:55:21.564Z,21.34
2019-04-30T13:57:47.551Z,21.16
2019-04-30T14:00:16.060Z,20.91
2019-04-30T14:02:44.901Z,20.75
2019-04-30T14:05:14.031Z,20.36
2019-04-30T14:07:59.846Z,20.58
2019-04-30T14:10:29.345Z,20.50
2019-04-30T14:12:57.323Z,20.63
2019-04-30T14:15:23.338Z,20.34
2019-04-30T14:17:49.464Z,20.10
2019-04-30T14:20:15.707Z,20.01
2019-04-30T14:22:41.737Z,19.88
2019-04-30T14:25:08.022Z,19.51
2019-04-30T14:27:34.048Z,19.48
2019-04-30T14:30:00.038Z,19.29
2019-04-30T14:32:28.409Z,19.25
2019-04-30T14:34:54.367Z,18.93
2019-04-30T14:37:20.430Z,18.80
2019-04-30T14:39:46.547Z,18.68
2019-04-30T14:42:13.237Z,18.63
2019-04-30T14:44:40.568Z,18.48
2019-04-30T14:47:12.633Z,18.11
2019-04-30T14:50:02.686Z,17.97
2019-04-30T14:52:25.541Z,18.04
2019-04-30T14:55:05.373Z,17.87
2019-04-30T14:57:38.859Z,17.87
2019-04-30T15:00:09.851Z,17.92
2019-04-30T15:02:37.742Z,18.24
2019-04-30T15:05:08.808Z,18.36
2019-04-30T15:07:34.853Z,18.65
2019-04-30T15:10:01.476Z,18.65
2019-04-30T15:12:27.525Z,18.65
2019-04-30T15:14:53.525Z,18.81
2019-04-30T15:17:19.817Z,18.64
2019-04-30T15:19:45.824Z,18.18
2019-04-30T15:22:11.887Z,18.35
2019-04-30T15:24:39.593Z,18.67
2019-04-30T15:27:05.592Z,18.39
2019-04-30T15:29:31.616Z,18.27
2019-04-30T15:31:59.282Z,18.18
2019-04-30T15:34:25.456Z,18.39
2019-04-30T15:36:51.526Z,18.24
2019-04-30T15:39:39.268Z,18.19
2019-04-30T15:42:05.952Z,18.05
2019-04-30T15:44:40.167Z,17.93
2019-04-30T15:47:01.105Z,18.21
2019-04-30T15:49:27.190Z,18.12
2019-04-30T15:51:53.228Z,18.18
2019-04-30T15:54:20.965Z,18.14
2019-04-30T15:56:48.896Z,18.02
2019-04-30T15:59:19.794Z,18.04
2019-04-30T16:01:56.532Z,17.96
2019-04-30T16:04:39.356Z,18.00
2019-04-30T16:07:05.723Z,17.99
2019-04-30T16:09:38.438Z,18.02
2019-04-30T16:12:22.982Z,18.02
2019-04-30T16:14:49.100Z,17.99
2019-04-30T16:17:22.448Z,17.99
2019-04-30T16:19:48.573Z,17.79
2019-04-30T16:22:14.696Z,17.80
2019-04-30T16:24:40.763Z,17.89
2019-04-30T16:27:08.748Z,17.95
2019-04-30T16:29:34.855Z,17.90
2019-04-30T16:32:00.986Z,18.02
2019-04-30T16:34:30.189Z,17.81
2019-04-30T16:36:55.220Z,17.84
2019-04-30T16:39:21.357Z,17.78
2019-04-30T16:41:49.512Z,17.80
2019-04-30T16:44:15.348Z,17.70
2019-04-30T16:46:43.476Z,17.83
2019-04-30T16:49:10.533Z,17.74
2019-04-30T16:51:38.607Z,17.76
2019-04-30T16:54:04.773Z,17.60
2019-04-30T16:56:30.764Z,17.60
2019-04-30T16:58:57.777Z,17.77
2019-04-30T17:01:23.868Z,17.75
2019-04-30T17:03:51.782Z,17.63
2019-04-30T17:06:19.775Z,17.69
2019-04-30T17:08:50.216Z,17.76
2019-04-30T17:11:18.090Z,17.79
2019-04-30T17:13:54.916Z,17.81
2019-04-30T17:16:23.357Z,17.70
2019-04-30T17:18:50.104Z,17.59
2019-04-30T17:21:16.380Z,17.66
2019-04-30T17:23:42.423Z,17.53
2019-04-30T17:26:08.491Z,17.49
2019-04-30T17:28:34.604Z,17.56
2019-04-30T17:31:00.617Z,17.63
2019-04-30T17:33:26.646Z,17.53
2019-04-30T17:35:52.631Z,17.50
2019-04-30T17:38:18.634Z,17.46
2019-04-30T17:40:44.684Z,17.49
2019-04-30T17:43:10.689Z,17.56
2019-04-30T17:45:36.721Z,17.45
2019-04-30T17:48:02.939Z,17.37
2019-04-30T17:50:29.596Z,17.34
2019-04-30T17:52:55.780Z,17.34
2019-04-30T17:55:21.776Z,17.28
2019-04-30T17:57:48.692Z,17.36
2019-04-30T18:00:19.957Z,17.33
2019-04-30T18:02:44.546Z,17.30
2019-04-30T18:05:11.403Z,17.32
2019-04-30T18:07:39.403Z,17.29
2019-04-30T18:10:08.743Z,17.24
2019-04-30T18:12:34.894Z,17.13
2019-04-30T18:15:01.087Z,17.15
2019-04-30T18:17:27.079Z,17.04
2019-04-30T18:19:55.261Z,17.09
2019-04-30T18:22:40.103Z,17.13
2019-04-30T18:25:11.309Z,17.01
2019-04-30T18:27:45.642Z,16.98
2019-04-30T18:30:11.726Z,16.80
2019-04-30T18:32:38.679Z,16.87
2019-04-30T18:35:05.435Z,16.82
2019-04-30T18:37:31.564Z,16.73
2019-04-30T18:39:59.979Z,16.75
2019-04-30T18:42:25.589Z,16.65
2019-04-30T18:44:51.577Z,16.62
2019-04-30T18:47:18.878Z,16.50
2019-04-30T18:49:45.008Z,16.37
2019-04-30T18:52:11.033Z,16.39
2019-04-30T18:54:39.724Z,16.43
2019-04-30T18:57:05.938Z,16.28
2019-04-30T18:59:32.714Z,16.24
2019-04-30T19:01:58.803Z,16.12
2019-04-30T19:04:24.965Z,16.17
2019-04-30T19:06:52.852Z,16.05
2019-04-30T19:09:20.735Z,16.15
2019-04-30T19:11:54.973Z,16.05
2019-04-30T19:14:29.497Z,15.96
2019-04-30T19:17:03.591Z,15.99
2019-04-30T19:19:40.379Z,15.99
2019-04-30T19:22:06.775Z,15.88
2019-04-30T19:24:32.883Z,15.87
2019-04-30T19:26:58.875Z,15.88
2019-04-30T19:29:25.950Z,15.81
2019-04-30T19:31:52.275Z,15.81
2019-04-30T19:34:18.322Z,15.75
2019-04-30T19:36:44.340Z,15.74
2019-04-30T19:39:12.306Z,15.67
2019-04-30T19:41:38.733Z,15.60
2019-04-30T19:44:05.068Z,15.57
2019-04-30T19:46:31.148Z,15.49
2019-04-30T19:48:58.583Z,15.40
2019-04-30T19:51:24.835Z,15.52
2019-04-30T19:53:50.812Z,15.38
2019-04-30T19:56:18.306Z,15.34
2019-04-30T19:58:55.798Z,15.32
2019-04-30T20:01:12.837Z,15.27
2019-04-30T20:03:40.709Z,15.43
2019-04-30T20:06:08.840Z,15.34
2019-04-30T20:08:34.690Z,15.33
2019-04-30T20:11:00.666Z,15.26
2019-04-30T20:13:33.786Z,15.19
2019-04-30T20:15:54.696Z,15.24
2019-04-30T20:18:20.720Z,15.28
2019-04-30T20:20:51.588Z,15.17
2019-04-30T20:23:16.512Z,15.19
2019-04-30T20:25:42.499Z,15.17
2019-04-30T20:28:08.545Z,15.07
2019-04-30T20:30:34.520Z,15.12
2019-04-30T20:33:00.687Z,15.10
2019-04-30T20:35:26.656Z,15.18
2019-04-30T20:38:10.753Z,15.26
2019-04-30T20:40:43.682Z,15.47
2019-04-30T20:43:05.992Z,15.46
2019-04-30T20:45:31.980Z,15.24
2019-04-30T20:47:59.234Z,15.21
2019-04-30T20:50:25.388Z,15.08
2019-04-30T20:52:51.376Z,15.03
2019-04-30T20:55:17.443Z,15.01
2019-04-30T20:57:43.526Z,15.01
2019-04-30T21:00:09.852Z,14.88
2019-04-30T21:02:35.924Z,14.80
2019-04-30T21:05:03.443Z,14.92
2019-04-30T21:07:29.435Z,14.71
2019-04-30T21:09:55.456Z,14.80
2019-04-30T21:12:21.493Z,14.70
2019-04-30T21:14:48.564Z,14.73
2019-04-30T21:17:14.703Z,14.71
2019-04-30T21:19:40.786Z,14.50
2019-04-30T21:22:06.871Z,14.56
2019-04-30T21:24:32.914Z,14.51
2019-04-30T21:26:58.926Z,14.54
2019-04-30T21:29:24.959Z,14.42
2019-04-30T21:32:04.629Z,14.36
2019-04-30T21:34:35.671Z,14.43
2019-04-30T21:37:01.771Z,14.36
2019-04-30T21:39:27.998Z,14.45
2019-04-30T21:41:53.979Z,14.39
2019-04-30T21:44:19.992Z,14.24
2019-04-30T21:46:45.970Z,14.21
2019-04-30T21:49:11.971Z,14.18
2019-04-30T21:51:40.074Z,14.12
2019-04-30T21:54:05.908Z,14.18
2019-04-30T21:56:31.889Z,14.07
2019-04-30T21:58:57.937Z,13.97
2019-04-30T22:01:24.138Z,13.86
2019-04-30T22:03:50.236Z,13.95
2019-04-30T22:06:16.444Z,13.93
2019-04-30T22:08:42.442Z,13.91
2019-04-30T22:11:09.783Z,14.00
2019-04-30T22:13:35.995Z,13.82
2019-04-30T22:16:01.986Z,13.83
2019-04-30T22:18:28.046Z,13.83
2019-04-30T22:20:54.685Z,13.82
2019-04-30T22:23:20.805Z,13.74
2019-04-30T22:25:46.941Z,13.76
2019-04-30T22:28:12.992Z,13.65
2019-04-30T22:30:39.064Z,13.58
2019-04-30T22:33:05.047Z,13.47
2019-04-30T22:35:33.160Z,13.53
2019-04-30T22:38:03.883Z,13.40
2019-04-30T22:40:31.654Z,13.36
2019-04-30T22:42:59.358Z,13.31
2019-04-30T22:45:27.376Z,13.29
2019-04-30T22:47:53.473Z,13.27
2019-04-30T22:50:19.580Z,13.37
2019-04-30T22:52:45.725Z,13.11
2019-04-30T22:55:12.436Z,13.14
2019-04-30T22:57:38.568Z,13.12
2019-04-30T23:00:09.577Z,13.10
2019-04-30T23:02:36.852Z,12.94
2019-04-30T23:05:04.791Z,12.94
2019-04-30T23:07:31.263Z,12.92
2019-04-30T23:09:57.341Z,12.91
2019-04-30T23:12:24.331Z,12.86
2019-04-30T23:14:50.292Z,12.80
2019-04-30T23:17:16.296Z,12.84
2019-04-30T23:19:49.143Z,12.80
2019-04-30T23:22:10.213Z,12.78
2019-04-30T23:24:36.563Z,12.73
2019-04-30T23:27:02.644Z,12.71
2019-04-30T23:29:28.614Z,12.70
2019-04-30T23:31:54.624Z,12.64
2019-04-30T23:34:20.603Z,12.56
2019-04-30T23:36:46.889Z,12.59
2019-04-30T23:39:12.883Z,12.53
2019-04-30T23:41:39.133Z,12.44
2019-04-30T23:44:05.255Z,12.51
2019-04-30T23:46:31.271Z,12.44
2019-04-30T23:48:57.285Z,12.49
2019-04-30T23:51:23.276Z,12.43
2019-04-30T23:53:49.252Z,12.38
2019-04-30T23:56:15.263Z,12.31
2019-04-30T23:58:41.247Z,12.44
